sensor_id;sensor_type;location;lat;lon;timestamp;P1;durP1;ratioP1;P2;durP2;ratioP2
66256;SDS011;53049;43.446;3.698;2023-06-14T00:01:37;6.20;;;3.63;;
66256;SDS011;53049;43.446;3.698;2023-06-14T00:04:03;5.70;;;3.55;;
66256;SDS011;53049;43.446;3.698;2023-06-14T00:06:30;6.57;;;3.53;;
66256;SDS011;53049;43.446;3.698;2023-06-14T00:08:58;6.07;;;3.50;;
66256;SDS011;53049;43.446;3.698;2023-06-14T00:11:24;7.13;;;3.53;;
66256;SDS011;53049;43.446;3.698;2023-06-14T00:13:51;6.00;;;3.58;;
66256;SDS011;53049;43.446;3.698;2023-06-14T00:16:17;8.32;;;4.20;;
66256;SDS011;53049;43.446;3.698;2023-06-14T00:18:44;6.40;;;3.60;;
66256;SDS011;53049;43.446;3.698;2023-06-14T00:21:10;5.30;;;3.63;;
66256;SDS011;53049;43.446;3.698;2023-06-14T00:23:37;6.28;;;3.92;;
66256;SDS011;53049;43.446;3.698;2023-06-14T00:26:03;5.45;;;3.47;;
66256;SDS011;53049;43.446;3.698;2023-06-14T00:28:28;7.57;;;4.40;;
66256;SDS011;53049;43.446;3.698;2023-06-14T00:30:54;7.45;;;4.03;;
66256;SDS011;53049;43.446;3.698;2023-06-14T00:33:20;6.57;;;3.78;;
66256;SDS011;53049;43.446;3.698;2023-06-14T00:35:46;7.03;;;3.72;;
66256;SDS011;53049;43.446;3.698;2023-06-14T00:38:12;7.47;;;3.60;;
66256;SDS011;53049;43.446;3.698;2023-06-14T00:40:38;5.53;;;3.60;;
66256;SDS011;53049;43.446;3.698;2023-06-14T00:43:03;6.05;;;3.65;;
66256;SDS011;53049;43.446;3.698;2023-06-14T00:45:29;5.78;;;3.55;;
66256;SDS011;53049;43.446;3.698;2023-06-14T00:47:56;7.15;;;4.18;;
66256;SDS011;53049;43.446;3.698;2023-06-14T00:50:22;8.07;;;4.03;;
66256;SDS011;53049;43.446;3.698;2023-06-14T00:52:49;6.97;;;4.00;;
66256;SDS011;53049;43.446;3.698;2023-06-14T00:55:15;6.22;;;3.92;;
66256;SDS011;53049;43.446;3.698;2023-06-14T00:57:41;7.15;;;3.70;;
66256;SDS011;53049;43.446;3.698;2023-06-14T01:00:07;7.35;;;3.65;;
66256;SDS011;53049;43.446;3.698;2023-06-14T01:02:38;7.07;;;4.05;;
66256;SDS011;53049;43.446;3.698;2023-06-14T01:05:04;6.05;;;4.00;;
66256;SDS011;53049;43.446;3.698;2023-06-14T01:13:15;7.43;;;4.07;;
66256;SDS011;53049;43.446;3.698;2023-06-14T01:15:50;5.50;;;3.55;;
66256;SDS011;53049;43.446;3.698;2023-06-14T01:18:17;8.57;;;4.25;;
66256;SDS011;53049;43.446;3.698;2023-06-14T01:20:44;7.38;;;3.90;;
66256;SDS011;53049;43.446;3.698;2023-06-14T01:23:12;5.00;;;3.70;;
66256;SDS011;53049;43.446;3.698;2023-06-14T01:25:37;6.65;;;4.00;;
66256;SDS011;53049;43.446;3.698;2023-06-14T01:28:04;6.90;;;3.55;;
66256;SDS011;53049;43.446;3.698;2023-06-14T01:30:36;7.32;;;3.67;;
66256;SDS011;53049;43.446;3.698;2023-06-14T01:33:04;4.93;;;3.65;;
66256;SDS011;53049;43.446;3.698;2023-06-14T01:35:30;5.10;;;3.63;;
66256;SDS011;53049;43.446;3.698;2023-06-14T01:37:56;6.80;;;3.70;;
66256;SDS011;53049;43.446;3.698;2023-06-14T01:40:22;5.80;;;3.92;;
66256;SDS011;53049;43.446;3.698;2023-06-14T01:42:49;5.95;;;3.40;;
66256;SDS011;53049;43.446;3.698;2023-06-14T01:45:15;6.15;;;3.42;;
66256;SDS011;53049;43.446;3.698;2023-06-14T01:47:43;6.03;;;3.20;;
66256;SDS011;53049;43.446;3.698;2023-06-14T01:50:10;7.43;;;3.60;;
66256;SDS011;53049;43.446;3.698;2023-06-14T01:52:36;5.75;;;3.83;;
66256;SDS011;53049;43.446;3.698;2023-06-14T01:55:04;5.97;;;3.65;;
66256;SDS011;53049;43.446;3.698;2023-06-14T01:57:30;7.22;;;3.30;;
66256;SDS011;53049;43.446;3.698;2023-06-14T01:59:56;5.53;;;3.47;;
66256;SDS011;53049;43.446;3.698;2023-06-14T02:02:21;7.85;;;3.75;;
66256;SDS011;53049;43.446;3.698;2023-06-14T02:04:47;6.70;;;3.50;;
66256;SDS011;53049;43.446;3.698;2023-06-14T02:07:13;6.85;;;3.60;;
66256;SDS011;53049;43.446;3.698;2023-06-14T02:09:40;5.78;;;3.53;;
66256;SDS011;53049;43.446;3.698;2023-06-14T02:12:06;5.45;;;3.47;;
66256;SDS011;53049;43.446;3.698;2023-06-14T02:14:32;5.28;;;3.55;;
66256;SDS011;53049;43.446;3.698;2023-06-14T02:16:58;6.05;;;3.22;;
66256;SDS011;53049;43.446;3.698;2023-06-14T02:19:26;5.45;;;3.20;;
66256;SDS011;53049;43.446;3.698;2023-06-14T02:21:52;5.05;;;3.30;;
66256;SDS011;53049;43.446;3.698;2023-06-14T02:24:17;4.80;;;3.30;;
66256;SDS011;53049;43.446;3.698;2023-06-14T02:26:43;6.55;;;3.63;;
66256;SDS011;53049;43.446;3.698;2023-06-14T02:29:09;7.93;;;3.40;;
66256;SDS011;53049;43.446;3.698;2023-06-14T02:31:37;5.18;;;3.35;;
66256;SDS011;53049;43.446;3.698;2023-06-14T02:34:03;5.13;;;3.10;;
66256;SDS011;53049;43.446;3.698;2023-06-14T02:36:29;4.38;;;2.95;;
66256;SDS011;53049;43.446;3.698;2023-06-14T02:38:55;4.90;;;3.20;;
66256;SDS011;53049;43.446;3.698;2023-06-14T02:41:22;4.93;;;3.05;;
66256;SDS011;53049;43.446;3.698;2023-06-14T02:43:49;6.97;;;3.40;;
66256;SDS011;53049;43.446;3.698;2023-06-14T02:46:15;5.82;;;3.83;;
66256;SDS011;53049;43.446;3.698;2023-06-14T02:48:40;5.03;;;3.60;;
66256;SDS011;53049;43.446;3.698;2023-06-14T02:51:06;6.15;;;3.30;;
66256;SDS011;53049;43.446;3.698;2023-06-14T02:53:33;6.28;;;3.55;;
66256;SDS011;53049;43.446;3.698;2023-06-14T02:55:59;6.00;;;3.55;;
66256;SDS011;53049;43.446;3.698;2023-06-14T02:58:26;9.25;;;3.55;;
66256;SDS011;53049;43.446;3.698;2023-06-14T03:00:51;4.63;;;3.10;;
66256;SDS011;53049;43.446;3.698;2023-06-14T03:03:20;5.53;;;3.25;;
66256;SDS011;53049;43.446;3.698;2023-06-14T03:05:47;5.93;;;3.30;;
66256;SDS011;53049;43.446;3.698;2023-06-14T03:08:15;6.28;;;3.55;;
66256;SDS011;53049;43.446;3.698;2023-06-14T03:10:47;6.68;;;3.10;;
66256;SDS011;53049;43.446;3.698;2023-06-14T03:13:14;7.55;;;3.58;;
66256;SDS011;53049;43.446;3.698;2023-06-14T03:15:41;8.50;;;3.63;;
66256;SDS011;53049;43.446;3.698;2023-06-14T03:18:08;6.15;;;3.70;;
66256;SDS011;53049;43.446;3.698;2023-06-14T03:20:37;7.93;;;3.35;;
66256;SDS011;53049;43.446;3.698;2023-06-14T03:23:06;6.07;;;3.53;;
66256;SDS011;53049;43.446;3.698;2023-06-14T03:25:32;5.72;;;3.13;;
66256;SDS011;53049;43.446;3.698;2023-06-14T03:28:00;4.78;;;3.25;;
66256;SDS011;53049;43.446;3.698;2023-06-14T03:30:27;5.50;;;3.65;;
66256;SDS011;53049;43.446;3.698;2023-06-14T03:32:55;9.20;;;3.58;;
66256;SDS011;53049;43.446;3.698;2023-06-14T03:35:21;6.35;;;3.35;;
66256;SDS011;53049;43.446;3.698;2023-06-14T03:37:47;5.20;;;3.60;;
66256;SDS011;53049;43.446;3.698;2023-06-14T03:40:15;5.93;;;3.30;;
66256;SDS011;53049;43.446;3.698;2023-06-14T03:42:41;6.22;;;3.05;;
66256;SDS011;53049;43.446;3.698;2023-06-14T03:45:07;7.22;;;3.80;;
66256;SDS011;53049;43.446;3.698;2023-06-14T03:47:33;5.15;;;3.45;;
66256;SDS011;53049;43.446;3.698;2023-06-14T03:49:59;6.43;;;3.50;;
66256;SDS011;53049;43.446;3.698;2023-06-14T03:52:26;7.60;;;3.75;;
66256;SDS011;53049;43.446;3.698;2023-06-14T03:54:52;6.05;;;3.70;;
66256;SDS011;53049;43.446;3.698;2023-06-14T03:57:18;6.05;;;3.55;;
66256;SDS011;53049;43.446;3.698;2023-06-14T03:59:44;7.43;;;3.50;;
66256;SDS011;53049;43.446;3.698;2023-06-14T04:02:09;9.07;;;3.65;;
66256;SDS011;53049;43.446;3.698;2023-06-14T04:04:35;6.32;;;3.47;;
66256;SDS011;53049;43.446;3.698;2023-06-14T04:07:01;6.28;;;3.30;;
66256;SDS011;53049;43.446;3.698;2023-06-14T04:09:28;4.70;;;3.30;;
66256;SDS011;53049;43.446;3.698;2023-06-14T04:11:55;6.35;;;3.33;;
66256;SDS011;53049;43.446;3.698;2023-06-14T04:14:21;6.32;;;3.42;;
66256;SDS011;53049;43.446;3.698;2023-06-14T04:16:47;5.80;;;3.58;;
66256;SDS011;53049;43.446;3.698;2023-06-14T04:19:14;5.07;;;3.08;;
66256;SDS011;53049;43.446;3.698;2023-06-14T04:21:40;4.32;;;3.25;;
66256;SDS011;53049;43.446;3.698;2023-06-14T04:24:06;5.15;;;3.25;;
66256;SDS011;53049;43.446;3.698;2023-06-14T04:26:31;6.40;;;3.35;;
66256;SDS011;53049;43.446;3.698;2023-06-14T04:28:58;5.85;;;3.67;;
66256;SDS011;53049;43.446;3.698;2023-06-14T04:31:30;5.88;;;3.30;;
66256;SDS011;53049;43.446;3.698;2023-06-14T04:33:58;5.50;;;3.58;;
66256;SDS011;53049;43.446;3.698;2023-06-14T04:36:25;5.93;;;3.33;;
66256;SDS011;53049;43.446;3.698;2023-06-14T04:38:52;7.35;;;3.50;;
66256;SDS011;53049;43.446;3.698;2023-06-14T04:41:20;7.20;;;3.55;;
66256;SDS011;53049;43.446;3.698;2023-06-14T04:43:48;4.82;;;3.47;;
66256;SDS011;53049;43.446;3.698;2023-06-14T04:46:14;5.78;;;3.70;;
66256;SDS011;53049;43.446;3.698;2023-06-14T04:48:40;5.88;;;3.28;;
66256;SDS011;53049;43.446;3.698;2023-06-14T04:51:10;5.22;;;3.60;;
66256;SDS011;53049;43.446;3.698;2023-06-14T04:53:38;5.97;;;3.38;;
66256;SDS011;53049;43.446;3.698;2023-06-14T04:56:03;8.10;;;3.72;;
66256;SDS011;53049;43.446;3.698;2023-06-14T04:58:29;8.50;;;3.92;;
66256;SDS011;53049;43.446;3.698;2023-06-14T05:00:55;7.03;;;4.03;;
66256;SDS011;53049;43.446;3.698;2023-06-14T05:03:22;6.63;;;3.97;;
66256;SDS011;53049;43.446;3.698;2023-06-14T05:05:49;7.70;;;3.50;;
66256;SDS011;53049;43.446;3.698;2023-06-14T05:08:15;9.30;;;3.90;;
66256;SDS011;53049;43.446;3.698;2023-06-14T05:10:41;6.85;;;3.45;;
66256;SDS011;53049;43.446;3.698;2023-06-14T05:13:07;7.90;;;3.58;;
66256;SDS011;53049;43.446;3.698;2023-06-14T05:15:32;5.22;;;3.97;;
66256;SDS011;53049;43.446;3.698;2023-06-14T05:17:59;5.70;;;3.88;;
66256;SDS011;53049;43.446;3.698;2023-06-14T05:20:24;5.70;;;3.13;;
66256;SDS011;53049;43.446;3.698;2023-06-14T05:22:52;7.68;;;3.70;;
66256;SDS011;53049;43.446;3.698;2023-06-14T05:25:19;5.57;;;3.10;;
66256;SDS011;53049;43.446;3.698;2023-06-14T05:27:45;7.40;;;3.42;;
66256;SDS011;53049;43.446;3.698;2023-06-14T05:30:12;5.50;;;3.17;;
66256;SDS011;53049;43.446;3.698;2023-06-14T05:32:38;6.63;;;3.03;;
66256;SDS011;53049;43.446;3.698;2023-06-14T05:35:04;10.43;;;3.83;;
66256;SDS011;53049;43.446;3.698;2023-06-14T05:37:31;13.25;;;4.18;;
66256;SDS011;53049;43.446;3.698;2023-06-14T05:39:56;11.60;;;3.80;;
66256;SDS011;53049;43.446;3.698;2023-06-14T05:42:22;12.88;;;3.50;;
66256;SDS011;53049;43.446;3.698;2023-06-14T05:44:48;8.40;;;4.00;;
66256;SDS011;53049;43.446;3.698;2023-06-14T05:47:13;4.53;;;3.28;;
66256;SDS011;53049;43.446;3.698;2023-06-14T05:49:39;5.65;;;3.47;;
66256;SDS011;53049;43.446;3.698;2023-06-14T05:52:05;4.97;;;3.25;;
66256;SDS011;53049;43.446;3.698;2023-06-14T05:54:31;5.95;;;3.63;;
66256;SDS011;53049;43.446;3.698;2023-06-14T05:56:57;6.60;;;3.45;;
66256;SDS011;53049;43.446;3.698;2023-06-14T05:59:26;6.18;;;3.33;;
66256;SDS011;53049;43.446;3.698;2023-06-14T06:01:52;5.47;;;3.10;;
66256;SDS011;53049;43.446;3.698;2023-06-14T06:04:18;5.00;;;3.28;;
66256;SDS011;53049;43.446;3.698;2023-06-14T06:06:44;6.82;;;3.80;;
66256;SDS011;53049;43.446;3.698;2023-06-14T06:09:11;6.35;;;3.10;;
66256;SDS011;53049;43.446;3.698;2023-06-14T06:11:37;5.75;;;3.80;;
66256;SDS011;53049;43.446;3.698;2023-06-14T06:14:02;7.28;;;3.40;;
66256;SDS011;53049;43.446;3.698;2023-06-14T06:16:28;6.32;;;3.63;;
66256;SDS011;53049;43.446;3.698;2023-06-14T06:18:54;6.85;;;3.45;;
66256;SDS011;53049;43.446;3.698;2023-06-14T06:21:19;5.32;;;3.80;;
66256;SDS011;53049;43.446;3.698;2023-06-14T06:23:45;6.22;;;3.50;;
66256;SDS011;53049;43.446;3.698;2023-06-14T06:26:10;5.82;;;3.20;;
66256;SDS011;53049;43.446;3.698;2023-06-14T06:28:36;5.55;;;2.95;;
66256;SDS011;53049;43.446;3.698;2023-06-14T06:31:02;5.07;;;3.75;;
66256;SDS011;53049;43.446;3.698;2023-06-14T06:33:28;5.70;;;2.95;;
66256;SDS011;53049;43.446;3.698;2023-06-14T06:35:53;5.00;;;3.22;;
66256;SDS011;53049;43.446;3.698;2023-06-14T06:38:19;4.70;;;3.42;;
66256;SDS011;53049;43.446;3.698;2023-06-14T06:40:45;6.03;;;3.42;;
66256;SDS011;53049;43.446;3.698;2023-06-14T06:43:10;5.32;;;3.58;;
66256;SDS011;53049;43.446;3.698;2023-06-14T06:45:39;5.22;;;3.42;;
66256;SDS011;53049;43.446;3.698;2023-06-14T06:48:07;5.15;;;3.28;;
66256;SDS011;53049;43.446;3.698;2023-06-14T06:50:35;8.10;;;3.50;;
66256;SDS011;53049;43.446;3.698;2023-06-14T06:53:01;4.20;;;3.08;;
66256;SDS011;53049;43.446;3.698;2023-06-14T06:55:27;6.03;;;3.30;;
66256;SDS011;53049;43.446;3.698;2023-06-14T06:57:54;6.93;;;3.08;;
66256;SDS011;53049;43.446;3.698;2023-06-14T07:00:20;5.95;;;3.13;;
66256;SDS011;53049;43.446;3.698;2023-06-14T07:02:46;5.10;;;3.33;;
66256;SDS011;53049;43.446;3.698;2023-06-14T07:05:12;6.50;;;3.25;;
66256;SDS011;53049;43.446;3.698;2023-06-14T07:07:38;4.82;;;3.10;;
66256;SDS011;53049;43.446;3.698;2023-06-14T07:10:04;5.65;;;3.28;;
66256;SDS011;53049;43.446;3.698;2023-06-14T07:12:30;4.85;;;3.17;;
66256;SDS011;53049;43.446;3.698;2023-06-14T07:14:58;5.15;;;3.30;;
66256;SDS011;53049;43.446;3.698;2023-06-14T07:17:24;5.50;;;2.78;;
66256;SDS011;53049;43.446;3.698;2023-06-14T07:19:50;5.70;;;3.13;;
66256;SDS011;53049;43.446;3.698;2023-06-14T07:22:16;5.75;;;3.28;;
66256;SDS011;53049;43.446;3.698;2023-06-14T07:24:42;4.90;;;3.15;;
66256;SDS011;53049;43.446;3.698;2023-06-14T07:27:08;3.55;;;2.40;;
66256;SDS011;53049;43.446;3.698;2023-06-14T07:29:34;4.05;;;2.80;;
66256;SDS011;53049;43.446;3.698;2023-06-14T07:32:00;4.25;;;2.85;;
66256;SDS011;53049;43.446;3.698;2023-06-14T07:34:25;4.82;;;2.75;;
66256;SDS011;53049;43.446;3.698;2023-06-14T07:36:52;4.35;;;2.70;;
66256;SDS011;53049;43.446;3.698;2023-06-14T07:39:19;4.70;;;2.70;;
66256;SDS011;53049;43.446;3.698;2023-06-14T07:41:44;4.70;;;2.80;;
66256;SDS011;53049;43.446;3.698;2023-06-14T07:44:10;3.90;;;2.67;;
66256;SDS011;53049;43.446;3.698;2023-06-14T07:46:37;5.50;;;2.83;;
66256;SDS011;53049;43.446;3.698;2023-06-14T07:49:03;4.50;;;2.60;;
66256;SDS011;53049;43.446;3.698;2023-06-14T07:51:29;4.95;;;2.75;;
66256;SDS011;53049;43.446;3.698;2023-06-14T07:53:54;3.72;;;2.58;;
66256;SDS011;53049;43.446;3.698;2023-06-14T07:56:21;4.78;;;2.60;;
66256;SDS011;53049;43.446;3.698;2023-06-14T07:58:50;3.10;;;2.33;;
66256;SDS011;53049;43.446;3.698;2023-06-14T08:01:16;3.90;;;2.67;;
66256;SDS011;53049;43.446;3.698;2023-06-14T08:03:41;4.35;;;2.55;;
66256;SDS011;53049;43.446;3.698;2023-06-14T08:06:07;3.75;;;2.60;;
66256;SDS011;53049;43.446;3.698;2023-06-14T08:08:33;4.57;;;2.90;;
66256;SDS011;53049;43.446;3.698;2023-06-14T08:10:59;3.92;;;2.58;;
66256;SDS011;53049;43.446;3.698;2023-06-14T08:13:24;4.13;;;2.60;;
66256;SDS011;53049;43.446;3.698;2023-06-14T08:15:50;4.80;;;2.80;;
66256;SDS011;53049;43.446;3.698;2023-06-14T08:18:16;3.65;;;2.42;;
66256;SDS011;53049;43.446;3.698;2023-06-14T08:20:41;4.22;;;2.72;;
66256;SDS011;53049;43.446;3.698;2023-06-14T08:23:07;6.13;;;2.90;;
66256;SDS011;53049;43.446;3.698;2023-06-14T08:25:34;3.25;;;2.65;;
66256;SDS011;53049;43.446;3.698;2023-06-14T08:27:59;4.82;;;3.10;;
66256;SDS011;53049;43.446;3.698;2023-06-14T08:30:26;6.13;;;3.00;;
66256;SDS011;53049;43.446;3.698;2023-06-14T08:32:51;3.88;;;2.60;;
66256;SDS011;53049;43.446;3.698;2023-06-14T08:35:17;5.25;;;3.08;;
66256;SDS011;53049;43.446;3.698;2023-06-14T08:37:43;7.90;;;2.72;;
66256;SDS011;53049;43.446;3.698;2023-06-14T08:40:20;5.20;;;2.90;;
66256;SDS011;53049;43.446;3.698;2023-06-14T08:42:50;4.07;;;2.78;;
66256;SDS011;53049;43.446;3.698;2023-06-14T08:45:18;4.15;;;2.70;;
66256;SDS011;53049;43.446;3.698;2023-06-14T08:47:45;5.90;;;2.90;;
66256;SDS011;53049;43.446;3.698;2023-06-14T08:50:16;6.72;;;3.00;;
66256;SDS011;53049;43.446;3.698;2023-06-14T08:52:45;5.43;;;3.17;;
66256;SDS011;53049;43.446;3.698;2023-06-14T08:55:15;5.25;;;3.30;;
66256;SDS011;53049;43.446;3.698;2023-06-14T08:57:42;3.58;;;2.88;;
66256;SDS011;53049;43.446;3.698;2023-06-14T09:00:10;4.57;;;2.85;;
66256;SDS011;53049;43.446;3.698;2023-06-14T09:02:38;5.50;;;2.90;;
66256;SDS011;53049;43.446;3.698;2023-06-14T09:05:08;6.68;;;3.30;;
66256;SDS011;53049;43.446;3.698;2023-06-14T09:07:38;4.90;;;2.70;;
66256;SDS011;53049;43.446;3.698;2023-06-14T09:10:09;4.03;;;2.90;;
66256;SDS011;53049;43.446;3.698;2023-06-14T09:12:36;6.05;;;3.55;;
66256;SDS011;53049;43.446;3.698;2023-06-14T09:15:03;4.35;;;2.97;;
66256;SDS011;53049;43.446;3.698;2023-06-14T09:17:40;5.75;;;3.30;;
66256;SDS011;53049;43.446;3.698;2023-06-14T09:20:07;4.80;;;3.25;;
66256;SDS011;53049;43.446;3.698;2023-06-14T09:22:35;4.55;;;3.03;;
66256;SDS011;53049;43.446;3.698;2023-06-14T09:25:01;5.55;;;2.95;;
66256;SDS011;53049;43.446;3.698;2023-06-14T09:27:30;4.38;;;2.92;;
66256;SDS011;53049;43.446;3.698;2023-06-14T09:29:57;4.35;;;2.83;;
66256;SDS011;53049;43.446;3.698;2023-06-14T09:32:22;5.13;;;3.08;;
66256;SDS011;53049;43.446;3.698;2023-06-14T09:34:48;4.78;;;3.20;;
66256;SDS011;53049;43.446;3.698;2023-06-14T09:37:30;5.05;;;3.10;;
66256;SDS011;53049;43.446;3.698;2023-06-14T09:39:57;6.43;;;3.22;;
66256;SDS011;53049;43.446;3.698;2023-06-14T09:42:23;4.85;;;2.97;;
66256;SDS011;53049;43.446;3.698;2023-06-14T09:44:53;6.25;;;3.00;;
66256;SDS011;53049;43.446;3.698;2023-06-14T09:47:20;4.82;;;3.10;;
66256;SDS011;53049;43.446;3.698;2023-06-14T09:49:47;5.82;;;3.10;;
66256;SDS011;53049;43.446;3.698;2023-06-14T09:52:14;5.97;;;3.20;;
66256;SDS011;53049;43.446;3.698;2023-06-14T09:54:42;4.55;;;3.42;;
66256;SDS011;53049;43.446;3.698;2023-06-14T09:57:09;4.53;;;2.90;;
66256;SDS011;53049;43.446;3.698;2023-06-14T09:59:36;5.15;;;3.05;;
66256;SDS011;53049;43.446;3.698;2023-06-14T10:02:08;5.63;;;3.22;;
66256;SDS011;53049;43.446;3.698;2023-06-14T10:04:40;4.25;;;2.97;;
66256;SDS011;53049;43.446;3.698;2023-06-14T10:07:12;4.65;;;3.22;;
66256;SDS011;53049;43.446;3.698;2023-06-14T10:09:42;4.43;;;3.28;;
66256;SDS011;53049;43.446;3.698;2023-06-14T10:12:13;4.57;;;2.97;;
66256;SDS011;53049;43.446;3.698;2023-06-14T10:14:45;3.90;;;2.83;;
66256;SDS011;53049;43.446;3.698;2023-06-14T10:17:50;5.95;;;3.35;;
66256;SDS011;53049;43.446;3.698;2023-06-14T10:23:22;9.52;;;3.70;;
66256;SDS011;53049;43.446;3.698;2023-06-14T10:25:49;6.18;;;3.55;;
66256;SDS011;53049;43.446;3.698;2023-06-14T10:28:19;6.75;;;3.00;;
66256;SDS011;53049;43.446;3.698;2023-06-14T10:33:30;5.18;;;3.33;;
66256;SDS011;53049;43.446;3.698;2023-06-14T10:41:39;5.78;;;2.90;;
66256;SDS011;53049;43.446;3.698;2023-06-14T10:46:37;3.88;;;2.88;;
66256;SDS011;53049;43.446;3.698;2023-06-14T10:49:03;5.53;;;2.90;;
66256;SDS011;53049;43.446;3.698;2023-06-14T10:51:30;3.97;;;3.22;;
66256;SDS011;53049;43.446;3.698;2023-06-14T10:54:14;4.72;;;3.08;;
66256;SDS011;53049;43.446;3.698;2023-06-14T10:56:47;3.97;;;2.97;;
66256;SDS011;53049;43.446;3.698;2023-06-14T10:59:13;4.30;;;2.85;;
66256;SDS011;53049;43.446;3.698;2023-06-14T11:04:26;4.03;;;2.97;;
66256;SDS011;53049;43.446;3.698;2023-06-14T11:07:10;4.00;;;2.83;;
66256;SDS011;53049;43.446;3.698;2023-06-14T11:12:39;5.05;;;3.42;;
66256;SDS011;53049;43.446;3.698;2023-06-14T11:15:07;5.35;;;3.20;;
66256;SDS011;53049;43.446;3.698;2023-06-14T11:17:36;4.50;;;3.20;;
66256;SDS011;53049;43.446;3.698;2023-06-14T11:20:12;4.13;;;3.00;;
66256;SDS011;53049;43.446;3.698;2023-06-14T11:22:41;4.82;;;3.03;;
66256;SDS011;53049;43.446;3.698;2023-06-14T11:25:13;4.32;;;2.83;;
66256;SDS011;53049;43.446;3.698;2023-06-14T11:27:42;5.40;;;3.15;;
66256;SDS011;53049;43.446;3.698;2023-06-14T11:30:09;5.68;;;3.35;;
66256;SDS011;53049;43.446;3.698;2023-06-14T11:32:35;5.57;;;3.42;;
66256;SDS011;53049;43.446;3.698;2023-06-14T11:35:02;4.57;;;3.00;;
66256;SDS011;53049;43.446;3.698;2023-06-14T11:37:30;5.28;;;3.28;;
66256;SDS011;53049;43.446;3.698;2023-06-14T11:39:58;5.30;;;3.20;;
66256;SDS011;53049;43.446;3.698;2023-06-14T11:42:24;4.53;;;3.38;;
66256;SDS011;53049;43.446;3.698;2023-06-14T11:44:53;4.72;;;2.97;;
66256;SDS011;53049;43.446;3.698;2023-06-14T11:47:19;6.05;;;3.53;;
66256;SDS011;53049;43.446;3.698;2023-06-14T11:49:45;5.70;;;3.20;;
66256;SDS011;53049;43.446;3.698;2023-06-14T11:52:11;6.45;;;3.30;;
66256;SDS011;53049;43.446;3.698;2023-06-14T11:54:37;6.00;;;3.20;;
66256;SDS011;53049;43.446;3.698;2023-06-14T11:57:05;8.38;;;3.53;;
66256;SDS011;53049;43.446;3.698;2023-06-14T11:59:32;7.28;;;3.60;;
66256;SDS011;53049;43.446;3.698;2023-06-14T12:02:02;6.07;;;3.63;;
66256;SDS011;53049;43.446;3.698;2023-06-14T12:04:29;6.68;;;3.50;;
66256;SDS011;53049;43.446;3.698;2023-06-14T12:06:55;7.57;;;3.40;;
66256;SDS011;53049;43.446;3.698;2023-06-14T12:09:22;6.97;;;3.15;;
66256;SDS011;53049;43.446;3.698;2023-06-14T12:11:50;5.68;;;3.47;;
66256;SDS011;53049;43.446;3.698;2023-06-14T12:14:28;5.90;;;3.63;;
66256;SDS011;53049;43.446;3.698;2023-06-14T12:17:04;5.28;;;3.38;;
66256;SDS011;53049;43.446;3.698;2023-06-14T12:19:33;6.53;;;3.90;;
66256;SDS011;53049;43.446;3.698;2023-06-14T12:22:06;7.00;;;3.28;;
66256;SDS011;53049;43.446;3.698;2023-06-14T12:24:34;5.20;;;3.35;;
66256;SDS011;53049;43.446;3.698;2023-06-14T12:26:59;7.00;;;3.72;;
66256;SDS011;53049;43.446;3.698;2023-06-14T12:29:27;4.90;;;3.00;;
66256;SDS011;53049;43.446;3.698;2023-06-14T12:31:53;5.80;;;3.25;;
66256;SDS011;53049;43.446;3.698;2023-06-14T12:34:21;4.57;;;3.08;;
66256;SDS011;53049;43.446;3.698;2023-06-14T12:36:51;5.53;;;3.28;;
66256;SDS011;53049;43.446;3.698;2023-06-14T12:39:19;7.60;;;3.67;;
66256;SDS011;53049;43.446;3.698;2023-06-14T12:41:44;4.45;;;3.25;;
66256;SDS011;53049;43.446;3.698;2023-06-14T12:44:11;4.22;;;3.28;;
66256;SDS011;53049;43.446;3.698;2023-06-14T12:46:37;5.68;;;3.85;;
66256;SDS011;53049;43.446;3.698;2023-06-14T12:49:04;7.13;;;4.68;;
66256;SDS011;53049;43.446;3.698;2023-06-14T12:51:31;8.65;;;5.00;;
66256;SDS011;53049;43.446;3.698;2023-06-14T12:53:57;7.95;;;4.60;;
66256;SDS011;53049;43.446;3.698;2023-06-14T12:56:23;8.73;;;4.25;;
66256;SDS011;53049;43.446;3.698;2023-06-14T12:58:48;6.50;;;4.65;;
66256;SDS011;53049;43.446;3.698;2023-06-14T13:01:14;9.20;;;5.05;;
66256;SDS011;53049;43.446;3.698;2023-06-14T13:03:40;6.25;;;4.60;;
66256;SDS011;53049;43.446;3.698;2023-06-14T13:06:05;7.07;;;4.65;;
66256;SDS011;53049;43.446;3.698;2023-06-14T13:08:31;7.55;;;4.47;;
66256;SDS011;53049;43.446;3.698;2023-06-14T13:10:57;6.20;;;4.43;;
66256;SDS011;53049;43.446;3.698;2023-06-14T13:13:23;7.30;;;4.05;;
66256;SDS011;53049;43.446;3.698;2023-06-14T13:15:48;7.40;;;4.45;;
66256;SDS011;53049;43.446;3.698;2023-06-14T13:18:15;6.93;;;4.47;;
66256;SDS011;53049;43.446;3.698;2023-06-14T13:20:40;7.38;;;4.50;;
66256;SDS011;53049;43.446;3.698;2023-06-14T13:23:06;6.68;;;4.93;;
66256;SDS011;53049;43.446;3.698;2023-06-14T13:25:34;7.30;;;5.10;;
66256;SDS011;53049;43.446;3.698;2023-06-14T13:28:00;8.82;;;4.80;;
66256;SDS011;53049;43.446;3.698;2023-06-14T13:30:26;9.45;;;5.97;;
66256;SDS011;53049;43.446;3.698;2023-06-14T13:32:52;9.15;;;5.85;;
66256;SDS011;53049;43.446;3.698;2023-06-14T13:35:18;12.25;;;5.22;;
66256;SDS011;53049;43.446;3.698;2023-06-14T13:37:44;11.52;;;4.70;;
66256;SDS011;53049;43.446;3.698;2023-06-14T13:40:10;8.82;;;5.00;;
66256;SDS011;53049;43.446;3.698;2023-06-14T13:42:36;6.68;;;4.45;;
66256;SDS011;53049;43.446;3.698;2023-06-14T13:45:02;8.68;;;4.75;;
66256;SDS011;53049;43.446;3.698;2023-06-14T13:47:29;6.65;;;4.68;;
66256;SDS011;53049;43.446;3.698;2023-06-14T13:49:56;7.68;;;4.75;;
66256;SDS011;53049;43.446;3.698;2023-06-14T13:52:21;6.20;;;4.32;;
66256;SDS011;53049;43.446;3.698;2023-06-14T13:54:47;8.20;;;4.90;;
66256;SDS011;53049;43.446;3.698;2023-06-14T13:57:13;9.20;;;5.47;;
66256;SDS011;53049;43.446;3.698;2023-06-14T13:59:39;6.40;;;4.50;;
66256;SDS011;53049;43.446;3.698;2023-06-14T14:02:06;7.70;;;4.82;;
66256;SDS011;53049;43.446;3.698;2023-06-14T14:04:33;9.20;;;4.90;;
66256;SDS011;53049;43.446;3.698;2023-06-14T14:07:00;7.43;;;5.20;;
66256;SDS011;53049;43.446;3.698;2023-06-14T14:09:26;7.60;;;4.82;;
66256;SDS011;53049;43.446;3.698;2023-06-14T14:11:52;9.23;;;4.65;;
66256;SDS011;53049;43.446;3.698;2023-06-14T14:14:18;6.80;;;4.70;;
66256;SDS011;53049;43.446;3.698;2023-06-14T14:16:43;8.15;;;4.72;;
66256;SDS011;53049;43.446;3.698;2023-06-14T14:19:09;6.75;;;4.93;;
66256;SDS011;53049;43.446;3.698;2023-06-14T14:21:35;9.52;;;5.10;;
66256;SDS011;53049;43.446;3.698;2023-06-14T14:24:01;8.60;;;5.13;;
66256;SDS011;53049;43.446;3.698;2023-06-14T14:26:26;8.45;;;5.20;;
66256;SDS011;53049;43.446;3.698;2023-06-14T14:28:52;7.10;;;5.00;;
66256;SDS011;53049;43.446;3.698;2023-06-14T14:31:18;10.57;;;5.70;;
66256;SDS011;53049;43.446;3.698;2023-06-14T14:33:44;7.60;;;5.10;;
66256;SDS011;53049;43.446;3.698;2023-06-14T14:36:10;6.95;;;4.60;;
66256;SDS011;53049;43.446;3.698;2023-06-14T14:38:35;6.38;;;4.60;;
66256;SDS011;53049;43.446;3.698;2023-06-14T14:41:01;11.15;;;5.10;;
66256;SDS011;53049;43.446;3.698;2023-06-14T14:43:27;17.50;;;5.60;;
66256;SDS011;53049;43.446;3.698;2023-06-14T14:45:55;6.80;;;5.07;;
66256;SDS011;53049;43.446;3.698;2023-06-14T14:48:21;7.40;;;4.90;;
66256;SDS011;53049;43.446;3.698;2023-06-14T14:50:47;7.30;;;4.55;;
66256;SDS011;53049;43.446;3.698;2023-06-14T14:53:13;7.28;;;5.07;;
66256;SDS011;53049;43.446;3.698;2023-06-14T14:55:41;8.13;;;5.25;;
66256;SDS011;53049;43.446;3.698;2023-06-14T14:58:08;9.38;;;5.45;;
66256;SDS011;53049;43.446;3.698;2023-06-14T15:00:33;11.10;;;5.30;;
66256;SDS011;53049;43.446;3.698;2023-06-14T15:02:59;10.90;;;5.75;;
66256;SDS011;53049;43.446;3.698;2023-06-14T15:05:25;11.63;;;5.75;;
66256;SDS011;53049;43.446;3.698;2023-06-14T15:07:51;10.85;;;6.05;;
66256;SDS011;53049;43.446;3.698;2023-06-14T15:10:16;10.82;;;6.38;;
66256;SDS011;53049;43.446;3.698;2023-06-14T15:12:42;9.50;;;6.18;;